createdAt,value
2022-12-18T00:01:19.937Z,23.83
2022-12-18T00:03:47.537Z,28.42
2022-12-18T00:06:14.810Z,21.42
2022-12-18T00:08:42.824Z,21.98
2022-12-18T00:11:12.919Z,23.85
2022-12-18T00:13:40.080Z,26.20
2022-12-18T00:16:11.144Z,26.45
2022-12-18T00:18:38.305Z,24.23
2022-12-18T00:21:07.786Z,26.00
2022-12-18T00:23:35.937Z,24.83
2022-12-18T00:26:05.259Z,28.30
2022-12-18T00:28:31.941Z,28.25
2022-12-18T00:31:06.601Z,26.98
2022-12-18T00:33:33.306Z,28.15
2022-12-18T00:36:04.272Z,24.45
2022-12-18T00:38:31.014Z,25.50
2022-12-18T00:40:57.830Z,24.80
2022-12-18T00:43:24.422Z,24.35
2022-12-18T00:45:51.554Z,25.80
2022-12-18T00:48:18.112Z,25.08
2022-12-18T00:50:44.984Z,24.52
2022-12-18T00:53:11.866Z,23.52
2022-12-18T00:55:40.175Z,28.80
2022-12-18T00:58:06.653Z,24.63
2022-12-18T01:00:33.416Z,25.70
2022-12-18T01:03:00.048Z,24.92
2022-12-18T01:05:26.911Z,22.88
2022-12-18T01:07:53.333Z,23.77
2022-12-18T01:10:20.344Z,23.02
2022-12-18T01:12:46.873Z,23.30
2022-12-18T01:15:15.387Z,24.92
2022-12-18T01:17:41.973Z,24.88
2022-12-18T01:20:09.520Z,22.65
2022-12-18T01:22:36.784Z,22.17
2022-12-18T01:25:05.029Z,21.70
2022-12-18T01:27:34.255Z,21.75
2022-12-18T01:30:00.965Z,24.45
2022-12-18T01:32:27.562Z,24.52
2022-12-18T01:34:56.825Z,23.38
2022-12-18T01:37:23.572Z,23.52
2022-12-18T01:39:50.956Z,25.10
2022-12-18T01:42:17.694Z,25.83
2022-12-18T01:44:47.156Z,28.50
2022-12-18T01:47:25.183Z,24.30
2022-12-18T01:49:52.363Z,24.20
2022-12-18T01:52:21.104Z,25.15
2022-12-18T01:54:49.690Z,23.50
2022-12-18T01:57:16.442Z,24.67
2022-12-18T01:59:46.239Z,23.85
2022-12-18T02:02:13.133Z,24.63
2022-12-18T02:04:47.808Z,27.25
2022-12-18T02:07:24.826Z,23.75
2022-12-18T02:10:25.332Z,23.95
2022-12-18T02:13:22.544Z,23.98
2022-12-18T02:16:07.745Z,22.20
2022-12-18T02:18:39.192Z,22.27
2022-12-18T02:21:21.736Z,22.52
2022-12-18T02:23:57.658Z,24.88
2022-12-18T02:26:24.655Z,25.83
2022-12-18T02:29:06.943Z,24.63
2022-12-18T02:31:41.189Z,26.63
2022-12-18T02:34:09.448Z,24.08
2022-12-18T02:36:37.824Z,27.08
2022-12-18T02:39:07.369Z,25.30
2022-12-18T02:41:37.635Z,25.25
2022-12-18T02:44:10.025Z,26.52
2022-12-18T02:46:41.039Z,24.83
2022-12-18T02:49:34.367Z,24.48
2022-12-18T02:52:09.603Z,25.15
2022-12-18T02:54:58.792Z,22.30
2022-12-18T02:57:29.936Z,24.10
2022-12-18T03:00:08.921Z,20.15
2022-12-18T03:02:55.703Z,21.25
2022-12-18T03:05:30.199Z,20.13
2022-12-18T03:08:02.702Z,20.48
2022-12-18T03:10:33.370Z,19.05
2022-12-18T03:13:10.470Z,20.45
2022-12-18T03:15:42.934Z,19.58
2022-12-18T03:18:18.975Z,18.40
2022-12-18T03:20:49.187Z,17.17
2022-12-18T03:23:25.957Z,17.55
2022-12-18T03:25:57.662Z,17.42
2022-12-18T03:28:24.865Z,17.63
2022-12-18T03:30:58.588Z,14.88
2022-12-18T03:33:29.300Z,16.15
2022-12-18T03:35:56.262Z,15.95
2022-12-18T03:38:22.878Z,16.80
2022-12-18T03:40:57.404Z,21.67
2022-12-18T03:43:33.198Z,15.85
2022-12-18T03:46:15.560Z,24.35
2022-12-18T03:49:07.959Z,14.60
2022-12-18T03:51:50.083Z,14.07
2022-12-18T03:54:18.570Z,14.82
2022-12-18T03:56:52.462Z,15.32
2022-12-18T03:59:20.455Z,13.95
2022-12-18T04:01:50.333Z,14.23
2022-12-18T04:04:19.742Z,14.27
2022-12-18T04:06:48.956Z,13.32
2022-12-18T04:09:16.012Z,13.45
2022-12-18T04:11:44.744Z,13.27
2022-12-18T04:14:17.528Z,14.80
2022-12-18T04:16:44.588Z,13.98
2022-12-18T04:19:11.139Z,14.93
2022-12-18T04:21:38.041Z,14.50
2022-12-18T04:24:04.592Z,13.60
2022-12-18T04:26:31.188Z,13.52
2022-12-18T04:28:57.676Z,13.35
2022-12-18T04:31:24.288Z,13.48
2022-12-18T04:33:50.968Z,13.23
2022-12-18T04:36:17.694Z,13.38
2022-12-18T04:38:44.142Z,14.23
2022-12-18T04:41:10.738Z,13.07
2022-12-18T04:43:37.466Z,12.73
2022-12-18T04:46:08.403Z,12.60
2022-12-18T04:48:36.183Z,13.45
2022-12-18T04:51:02.891Z,13.35
2022-12-18T04:53:29.523Z,13.57
2022-12-18T04:56:11.813Z,13.82
2022-12-18T04:58:40.101Z,14.05
2022-12-18T05:01:08.331Z,14.48
2022-12-18T05:03:35.565Z,13.55
2022-12-18T05:06:02.257Z,14.40
2022-12-18T05:08:28.767Z,13.95
2022-12-18T05:11:11.161Z,13.20
2022-12-18T05:13:39.188Z,13.45
2022-12-18T05:16:06.719Z,12.95
2022-12-18T05:18:33.659Z,12.60
2022-12-18T05:21:00.128Z,11.95
2022-12-18T05:23:26.845Z,12.88
2022-12-18T05:26:01.806Z,12.20
2022-12-18T05:28:30.776Z,11.75
2022-12-18T05:31:00.716Z,12.02
2022-12-18T05:33:30.501Z,10.98
2022-12-18T05:35:59.349Z,11.25
2022-12-18T05:38:28.179Z,9.73
2022-12-18T05:40:55.514Z,10.10
2022-12-18T05:43:22.824Z,11.82
2022-12-18T05:45:49.963Z,10.85
2022-12-18T05:48:17.236Z,10.07
2022-12-18T05:50:48.680Z,10.02
2022-12-18T05:53:17.964Z,9.85
2022-12-18T05:55:45.140Z,10.30
2022-12-18T05:58:13.535Z,9.85
2022-12-18T06:00:44.079Z,9.77
2022-12-18T06:03:11.868Z,10.68
2022-12-18T06:05:40.696Z,10.38
2022-12-18T06:08:07.507Z,9.68
2022-12-18T06:10:34.068Z,11.00
2022-12-18T06:13:01.342Z,10.35
2022-12-18T06:15:28.077Z,10.63
2022-12-18T06:17:54.605Z,10.18
2022-12-18T06:20:21.230Z,9.98
2022-12-18T06:22:47.769Z,10.32
2022-12-18T06:25:14.512Z,9.43
2022-12-18T06:27:41.131Z,10.23
2022-12-18T06:30:09.626Z,10.43
2022-12-18T06:32:36.209Z,10.07
2022-12-18T06:35:02.754Z,9.80
2022-12-18T06:37:29.323Z,10.93
2022-12-18T06:39:57.505Z,10.10
2022-12-18T06:42:24.835Z,10.70
2022-12-18T06:44:52.578Z,10.93
2022-12-18T06:47:19.651Z,10.90
2022-12-18T06:49:46.182Z,11.20
2022-12-18T06:52:12.638Z,11.40
2022-12-18T06:54:39.133Z,10.80
2022-12-18T06:57:05.631Z,11.73
2022-12-18T06:59:32.293Z,12.77
2022-12-18T07:01:58.854Z,11.00
2022-12-18T07:04:31.375Z,11.93
2022-12-18T07:09:25.680Z,9.60
2022-12-18T07:11:53.431Z,10.93
2022-12-18T07:14:20.259Z,9.48
2022-12-18T07:16:46.803Z,10.75
2022-12-18T07:19:13.414Z,10.20
2022-12-18T07:21:39.852Z,10.10
2022-12-18T07:24:06.924Z,10.00
2022-12-18T07:26:33.667Z,10.55
2022-12-18T07:29:00.157Z,10.30
2022-12-18T07:31:27.686Z,9.23
2022-12-18T07:33:54.566Z,10.13
2022-12-18T07:36:24.235Z,9.35
2022-12-18T07:38:52.426Z,9.48
2022-12-18T07:41:19.621Z,9.15
2022-12-18T07:43:46.523Z,9.52
2022-12-18T07:46:15.138Z,9.27
2022-12-18T07:48:42.804Z,10.13
2022-12-18T07:51:13.447Z,9.00
2022-12-18T07:53:40.567Z,10.73
2022-12-18T07:56:27.694Z,10.35
2022-12-18T07:58:55.929Z,9.77
2022-12-18T08:01:22.495Z,9.40
2022-12-18T08:03:49.497Z,10.48
2022-12-18T08:06:18.358Z,10.55
2022-12-18T08:08:45.046Z,11.63
2022-12-18T08:11:11.509Z,11.13
2022-12-18T08:13:38.447Z,10.45
2022-12-18T08:16:08.772Z,10.38
2022-12-18T08:18:37.450Z,10.50
2022-12-18T08:21:25.387Z,10.05
2022-12-18T08:23:53.553Z,10.50
2022-12-18T08:26:21.103Z,9.73
2022-12-18T08:28:49.326Z,10.10
2022-12-18T08:31:17.133Z,9.82
2022-12-18T08:33:44.054Z,10.38
2022-12-18T08:36:11.060Z,10.35
2022-12-18T08:38:37.810Z,10.65
2022-12-18T08:41:08.285Z,10.65
2022-12-18T08:43:53.300Z,9.77
2022-12-18T08:46:21.301Z,10.00
2022-12-18T08:48:48.293Z,10.88
2022-12-18T08:51:18.043Z,10.27
2022-12-18T08:53:45.606Z,9.35
2022-12-18T08:56:13.132Z,9.60
2022-12-18T08:58:39.902Z,9.70
2022-12-18T09:01:10.228Z,10.10
2022-12-18T09:03:37.783Z,9.40
2022-12-18T09:06:05.650Z,9.85
2022-12-18T09:08:35.674Z,10.63
2022-12-18T09:11:02.098Z,10.82
2022-12-18T09:13:28.769Z,9.70
2022-12-18T09:15:56.633Z,11.98
2022-12-18T09:18:24.448Z,10.95
2022-12-18T09:20:55.072Z,11.27
2022-12-18T09:23:22.360Z,11.27
2022-12-18T09:25:49.253Z,10.60
2022-12-18T09:28:17.831Z,10.20
2022-12-18T09:30:47.888Z,10.07
2022-12-18T09:33:14.701Z,11.13
2022-12-18T09:35:43.299Z,10.07
2022-12-18T09:38:13.873Z,10.73
2022-12-18T09:40:53.419Z,11.25
2022-12-18T09:43:25.707Z,10.40
2022-12-18T09:45:58.136Z,10.48
2022-12-18T09:48:29.453Z,12.73
2022-12-18T09:51:03.281Z,10.65
2022-12-18T09:53:36.112Z,10.35
2022-12-18T09:56:05.665Z,11.07
2022-12-18T09:58:43.218Z,10.50
2022-12-18T10:01:15.573Z,8.75
2022-12-18T10:03:42.020Z,9.80
2022-12-18T10:06:27.180Z,10.18
2022-12-18T10:09:19.824Z,8.70
2022-12-18T10:12:07.823Z,10.45
2022-12-18T10:15:03.723Z,11.73
2022-12-18T10:17:52.510Z,12.00
2022-12-18T10:20:26.859Z,9.95
2022-12-18T10:23:03.261Z,8.80
2022-12-18T10:25:56.528Z,9.27
2022-12-18T10:28:25.245Z,9.02
2022-12-18T10:30:51.761Z,9.77
2022-12-18T10:33:29.088Z,10.95
2022-12-18T10:35:56.238Z,9.93
2022-12-18T10:38:24.067Z,10.60
2022-12-18T10:40:57.022Z,9.10
2022-12-18T10:43:25.270Z,10.32
2022-12-18T10:46:24.434Z,9.82
2022-12-18T10:48:56.478Z,9.73
2022-12-18T10:51:31.390Z,9.40
2022-12-18T10:54:06.247Z,9.43
2022-12-18T10:56:35.882Z,9.50
2022-12-18T10:59:14.490Z,9.85
2022-12-18T11:01:59.633Z,10.07
2022-12-18T11:04:32.586Z,10.07
2022-12-18T11:07:00.936Z,9.95
2022-12-18T11:09:33.198Z,9.50
2022-12-18T11:12:03.476Z,8.82
2022-12-18T11:14:46.516Z,10.00
2022-12-18T11:17:31.685Z,9.13
2022-12-18T11:20:00.912Z,9.77
2022-12-18T11:22:30.131Z,9.40
2022-12-18T11:25:32.517Z,13.60
2022-12-18T11:28:01.456Z,10.25
2022-12-18T11:30:28.472Z,9.45
2022-12-18T11:33:20.442Z,9.77
2022-12-18T11:35:49.964Z,9.85
2022-12-18T11:38:29.594Z,11.57
2022-12-18T11:41:44.885Z,9.25
2022-12-18T11:44:16.796Z,10.20
2022-12-18T11:46:52.696Z,10.85
2022-12-18T11:49:36.308Z,10.18
2022-12-18T11:52:26.277Z,17.80
2022-12-18T11:54:54.425Z,10.05
2022-12-18T11:57:38.734Z,12.15
2022-12-18T12:00:13.644Z,10.63
2022-12-18T12:02:59.251Z,10.38
2022-12-18T12:05:51.114Z,11.23
2022-12-18T12:08:54.434Z,11.02
2022-12-18T12:11:48.945Z,10.45
2022-12-18T12:14:51.146Z,8.88
2022-12-18T12:17:29.882Z,8.50
2022-12-18T12:20:08.171Z,8.90
2022-12-18T12:22:47.122Z,9.80
2022-12-18T12:25:30.455Z,10.40
2022-12-18T12:28:21.692Z,10.35
2022-12-18T12:31:17.233Z,9.50
2022-12-18T12:34:14.921Z,8.77
2022-12-18T12:37:16.053Z,9.40
2022-12-18T12:39:46.743Z,10.30
2022-12-18T12:42:43.397Z,10.05
2022-12-18T12:45:36.719Z,9.73
2022-12-18T12:48:12.389Z,9.57
2022-12-18T12:50:43.085Z,10.20
2022-12-18T12:53:23.747Z,9.48
2022-12-18T12:55:54.388Z,10.13
2022-12-18T12:58:36.943Z,10.88
2022-12-18T13:01:42.371Z,11.13
2022-12-18T13:04:46.942Z,10.15
2022-12-18T13:07:38.506Z,9.95
2022-12-18T13:10:39.736Z,9.32
2022-12-18T13:13:20.616Z,10.35
2022-12-18T13:16:09.293Z,11.45
2022-12-18T13:19:03.928Z,12.95
2022-12-18T13:21:34.355Z,15.05
2022-12-18T13:24:27.593Z,10.05
2022-12-18T13:26:55.088Z,9.73
2022-12-18T13:30:02.566Z,9.52
2022-12-18T13:32:29.319Z,9.00
2022-12-18T13:35:54.854Z,9.63
2022-12-18T13:38:25.156Z,9.05
2022-12-18T13:40:51.787Z,8.95
2022-12-18T13:43:21.623Z,8.60
2022-12-18T13:46:02.363Z,9.60
2022-12-18T13:48:33.159Z,9.23
2022-12-18T13:54:07.475Z,9.90
2022-12-18T13:56:35.510Z,10.73
2022-12-18T13:59:19.318Z,8.95
2022-12-18T14:01:58.432Z,8.55
2022-12-18T14:04:32.761Z,9.32
2022-12-18T14:07:13.708Z,8.13
2022-12-18T14:09:47.328Z,9.27
2022-12-18T14:12:48.173Z,8.93
2022-12-18T14:15:27.336Z,9.07
2022-12-18T14:18:00.886Z,8.25
2022-12-18T14:20:32.120Z,8.55
2022-12-18T14:23:02.467Z,8.55
2022-12-18T14:25:31.048Z,9.35
2022-12-18T14:28:15.437Z,8.50
2022-12-18T14:30:44.662Z,7.75
2022-12-18T14:33:16.588Z,8.50
2022-12-18T14:35:53.461Z,8.60
2022-12-18T14:38:33.844Z,8.48
2022-12-18T14:41:14.008Z,7.88
2022-12-18T14:43:43.041Z,7.88
2022-12-18T14:46:30.137Z,8.82
2022-12-18T14:49:00.934Z,9.18
2022-12-18T14:51:32.289Z,9.50
2022-12-18T14:54:02.011Z,9.63
2022-12-18T14:56:35.113Z,9.98
2022-12-18T14:59:16.035Z,10.07
2022-12-18T15:01:59.223Z,11.10
2022-12-18T15:04:32.723Z,13.35
2022-12-18T15:07:10.842Z,13.85
2022-12-18T15:12:33.060Z,13.38
2022-12-18T15:14:59.772Z,14.48
2022-12-18T15:17:26.951Z,11.55
2022-12-18T15:20:04.506Z,9.68
2022-12-18T15:22:37.032Z,9.40
2022-12-18T15:25:32.276Z,9.90
2022-12-18T15:28:02.046Z,9.48
2022-12-18T15:30:32.463Z,9.48
2022-12-18T15:33:24.204Z,12.05
2022-12-18T15:36:00.948Z,10.65
2022-12-18T15:38:35.800Z,10.52
2022-12-18T15:41:03.652Z,11.25
2022-12-18T15:43:39.600Z,11.60
2022-12-18T15:46:12.361Z,11.93
2022-12-18T15:48:48.093Z,10.40
2022-12-18T15:51:30.883Z,10.07
2022-12-18T15:54:01.153Z,10.27
2022-12-18T15:56:47.524Z,11.73
2022-12-18T15:59:17.653Z,11.10
2022-12-18T16:01:50.178Z,10.38
2022-12-18T16:04:21.289Z,11.13
2022-12-18T16:07:13.987Z,10.93
2022-12-18T16:09:40.670Z,11.90
2022-12-18T16:12:16.897Z,10.27
2022-12-18T16:14:46.459Z,14.07
2022-12-18T16:17:14.745Z,16.80
2022-12-18T16:19:45.409Z,16.77
2022-12-18T16:22:40.987Z,15.77
2022-12-18T16:25:17.615Z,18.80
2022-12-18T16:27:44.487Z,16.65
2022-12-18T16:30:17.571Z,15.68
2022-12-18T16:32:44.778Z,11.40
2022-12-18T16:35:16.450Z,12.35
2022-12-18T16:40:18.474Z,10.98
2022-12-18T16:42:47.170Z,12.45
2022-12-18T16:45:19.920Z,11.65
2022-12-18T16:47:46.861Z,12.25
2022-12-18T16:50:14.034Z,10.13
2022-12-18T16:52:41.305Z,14.25
2022-12-18T16:55:09.309Z,17.30
2022-12-18T16:57:36.286Z,27.05
2022-12-18T17:00:05.842Z,19.33
2022-12-18T17:02:36.223Z,18.23
2022-12-18T17:05:05.499Z,23.27
2022-12-18T17:07:32.147Z,16.38
2022-12-18T17:09:58.966Z,22.67
2022-12-18T17:12:26.953Z,29.67
2022-12-18T17:14:56.709Z,20.70
2022-12-18T17:17:26.276Z,15.27
2022-12-18T17:19:53.179Z,16.65
2022-12-18T17:22:24.108Z,18.73
2022-12-18T17:24:55.977Z,19.05
2022-12-18T17:27:22.711Z,20.20
2022-12-18T17:29:49.955Z,22.38
2022-12-18T17:32:18.530Z,13.35
2022-12-18T17:34:48.364Z,15.05
2022-12-18T17:37:15.527Z,18.15
2022-12-18T17:39:42.603Z,23.67
2022-12-18T17:42:15.368Z,16.20
2022-12-18T17:44:45.307Z,16.88
2022-12-18T17:47:14.145Z,16.88
2022-12-18T17:49:43.927Z,16.35
2022-12-18T17:52:13.750Z,14.75
2022-12-18T17:54:42.165Z,16.35
2022-12-18T17:57:08.972Z,15.20
2022-12-18T17:59:35.699Z,13.73
2022-12-18T18:02:03.216Z,12.68
2022-12-18T18:04:29.980Z,13.75
2022-12-18T18:06:57.157Z,12.63
2022-12-18T18:09:28.746Z,14.52
2022-12-18T18:12:13.858Z,13.30
2022-12-18T18:14:42.001Z,12.25
2022-12-18T18:17:11.620Z,10.98
2022-12-18T18:19:38.290Z,12.45
2022-12-18T18:22:06.414Z,12.60
2022-12-18T18:24:34.083Z,12.48
2022-12-18T18:27:03.939Z,13.05
2022-12-18T18:29:32.000Z,11.85
2022-12-18T18:31:59.425Z,10.68
2022-12-18T18:34:28.933Z,11.43
2022-12-18T18:37:03.299Z,12.98
2022-12-18T18:39:30.006Z,12.63
2022-12-18T18:41:56.834Z,14.70
2022-12-18T18:44:26.337Z,13.02
2022-12-18T18:46:57.430Z,14.68
2022-12-18T18:49:27.750Z,13.32
2022-12-18T18:51:56.383Z,13.68
2022-12-18T18:54:23.478Z,12.70
2022-12-18T18:59:43.319Z,12.85
2022-12-18T19:02:14.567Z,12.20
2022-12-18T19:04:45.801Z,11.95
2022-12-18T19:07:14.567Z,15.02
2022-12-18T19:09:52.108Z,13.25
2022-12-18T19:12:39.947Z,13.23
2022-12-18T19:15:07.702Z,12.68
2022-12-18T19:17:34.463Z,13.38
2022-12-18T19:20:06.499Z,12.70
2022-12-18T19:22:35.023Z,12.82
2022-12-18T19:25:02.155Z,13.05
2022-12-18T19:27:29.010Z,14.52
2022-12-18T19:29:55.701Z,15.00
2022-12-18T19:32:22.396Z,13.10
2022-12-18T19:34:49.390Z,18.30
2022-12-18T19:37:19.848Z,13.50
2022-12-18T19:39:46.432Z,15.82
2022-12-18T19:42:13.185Z,14.13
2022-12-18T19:44:40.054Z,15.00
2022-12-18T19:47:07.005Z,13.52
2022-12-18T19:49:33.876Z,12.38
2022-12-18T19:52:01.114Z,22.80
2022-12-18T19:54:27.720Z,12.57
2022-12-18T19:56:54.896Z,12.98
2022-12-18T19:59:23.580Z,12.23
2022-12-18T20:01:50.684Z,12.95
2022-12-18T20:04:17.787Z,11.32
2022-12-18T20:06:51.965Z,11.98
2022-12-18T20:09:19.663Z,11.57
2022-12-18T20:11:48.596Z,11.32
2022-12-18T20:14:22.716Z,11.13
2022-12-18T20:16:51.107Z,11.30
2022-12-18T20:19:18.732Z,11.52
2022-12-18T20:21:45.949Z,12.45
2022-12-18T20:24:13.884Z,11.30
2022-12-18T20:26:43.180Z,11.35
2022-12-18T20:29:10.140Z,12.40
2022-12-18T20:31:37.027Z,11.68
2022-12-18T20:34:07.154Z,11.55
2022-12-18T20:36:37.645Z,11.07
2022-12-18T20:39:07.666Z,12.38
2022-12-18T20:41:40.206Z,11.55
2022-12-18T20:44:22.860Z,11.27
2022-12-18T20:46:52.917Z,11.40
2022-12-18T20:49:23.211Z,9.50
2022-12-18T20:51:52.072Z,11.98
2022-12-18T20:54:26.462Z,10.55
2022-12-18T20:56:53.284Z,10.60
2022-12-18T20:59:22.108Z,10.25
2022-12-18T21:01:50.048Z,11.57
2022-12-18T21:04:19.258Z,10.70
2022-12-18T21:06:53.338Z,10.85
2022-12-18T21:09:28.045Z,10.48
2022-12-18T21:12:19.402Z,11.07
2022-12-18T21:14:46.370Z,11.07
2022-12-18T21:17:14.613Z,10.75
2022-12-18T21:19:41.654Z,11.00
2022-12-18T21:22:14.089Z,10.82
2022-12-18T21:24:41.458Z,10.30
2022-12-18T21:27:16.437Z,10.60
2022-12-18T21:29:44.751Z,10.43
2022-12-18T21:32:14.208Z,11.95
2022-12-18T21:34:46.024Z,12.35
2022-12-18T21:37:14.474Z,10.80
2022-12-18T21:39:43.977Z,10.57
2022-12-18T21:42:32.117Z,11.15
2022-12-18T21:44:58.944Z,10.68
2022-12-18T21:47:25.723Z,10.82
2022-12-18T21:49:53.373Z,11.07
2022-12-18T21:52:27.266Z,11.02
2022-12-18T21:55:07.970Z,11.82
2022-12-18T21:57:35.865Z,11.20
2022-12-18T22:00:03.774Z,11.25
2022-12-18T22:02:30.835Z,11.45
2022-12-18T22:04:57.669Z,11.25
2022-12-18T22:07:24.383Z,11.38
2022-12-18T22:09:51.190Z,10.93
2022-12-18T22:12:36.422Z,11.75
2022-12-18T22:15:11.131Z,10.15
2022-12-18T22:17:40.742Z,10.90
2022-12-18T22:20:09.603Z,11.23
2022-12-18T22:22:36.152Z,11.07
2022-12-18T22:25:04.142Z,10.77
2022-12-18T22:27:36.701Z,10.93
2022-12-18T22:30:05.277Z,11.02
2022-12-18T22:32:36.489Z,11.25
2022-12-18T22:35:10.362Z,11.00
2022-12-18T22:37:40.857Z,10.95
2022-12-18T22:40:11.095Z,11.13
2022-12-18T22:42:39.538Z,11.52
2022-12-18T22:45:06.531Z,10.57
2022-12-18T22:47:33.079Z,10.68
2022-12-18T22:49:59.901Z,11.18
2022-12-18T22:52:26.620Z,11.77
2022-12-18T22:54:55.803Z,12.32
2022-12-18T22:57:23.806Z,12.82
2022-12-18T22:59:54.121Z,11.10
2022-12-18T23:02:20.906Z,12.43
2022-12-18T23:04:48.088Z,12.07
2022-12-18T23:07:15.625Z,11.75
2022-12-18T23:09:44.696Z,11.45
2022-12-18T23:12:19.119Z,11.38
2022-12-18T23:14:50.077Z,12.05
2022-12-18T23:17:19.381Z,12.02
2022-12-18T23:19:49.199Z,12.02
2022-12-18T23:22:17.516Z,11.63
2022-12-18T23:24:44.300Z,11.70
2022-12-18T23:27:11.897Z,12.20
2022-12-18T23:29:39.952Z,11.98
2022-12-18T23:32:07.176Z,13.50
2022-12-18T23:34:33.794Z,11.70
2022-12-18T23:37:01.143Z,11.55
2022-12-18T23:39:30.526Z,12.07
2022-12-18T23:42:00.994Z,11.85
2022-12-18T23:44:28.558Z,11.63
2022-12-18T23:46:55.564Z,12.07
2022-12-18T23:49:22.931Z,13.02
2022-12-18T23:51:50.128Z,12.57
2022-12-18T23:54:21.103Z,11.50
2022-12-18T23:56:54.220Z,12.15
2022-12-18T23:59:25.297Z,12.77
